sensor_id;sensor_type;location;lat;lon;timestamp;temperature;humidity
20963;DHT22;10640;50.140;8.138;2022-08-04T00:00:29;20.10;99.90
20963;DHT22;10640;50.140;8.138;2022-08-04T00:03:12;20.00;99.90
20963;DHT22;10640;50.140;8.138;2022-08-04T00:05:51;20.00;99.90
20963;DHT22;10640;50.140;8.138;2022-08-04T00:08:29;20.00;99.90
20963;DHT22;10640;50.140;8.138;2022-08-04T00:10:58;19.90;99.90
20963;DHT22;10640;50.140;8.138;2022-08-04T00:13:29;19.90;99.90
20963;DHT22;10640;50.140;8.138;2022-08-04T00:15:58;19.80;99.90
20963;DHT22;10640;50.140;8.138;2022-08-04T00:18:29;19.80;99.90
20963;DHT22;10640;50.140;8.138;2022-08-04T00:21:03;19.80;99.90
20963;DHT22;10640;50.140;8.138;2022-08-04T00:23:33;19.80;99.90
20963;DHT22;10640;50.140;8.138;2022-08-04T00:26:02;19.80;99.90
20963;DHT22;10640;50.140;8.138;2022-08-04T00:28:30;19.80;99.90
20963;DHT22;10640;50.140;8.138;2022-08-04T00:30:57;19.70;99.90
20963;DHT22;10640;50.140;8.138;2022-08-04T00:33:25;19.70;99.90
20963;DHT22;10640;50.140;8.138;2022-08-04T00:35:53;19.80;99.90
20963;DHT22;10640;50.140;8.138;2022-08-04T00:38:20;19.70;99.90
20963;DHT22;10640;50.140;8.138;2022-08-04T00:40:55;19.60;99.90
20963;DHT22;10640;50.140;8.138;2022-08-04T00:43:32;19.70;99.90
20963;DHT22;10640;50.140;8.138;2022-08-04T00:46:23;19.60;99.90
20963;DHT22;10640;50.140;8.138;2022-08-04T00:49:27;19.70;99.90
20963;DHT22;10640;50.140;8.138;2022-08-04T00:52:04;19.60;99.90
20963;DHT22;10640;50.140;8.138;2022-08-04T00:54:45;19.50;99.90
20963;DHT22;10640;50.140;8.138;2022-08-04T00:57:30;19.20;99.90
20963;DHT22;10640;50.140;8.138;2022-08-04T01:00:08;19.20;99.90
20963;DHT22;10640;50.140;8.138;2022-08-04T01:02:41;19.30;99.90
20963;DHT22;10640;50.140;8.138;2022-08-04T01:05:20;19.20;99.90
20963;DHT22;10640;50.140;8.138;2022-08-04T01:08:10;19.30;99.90
20963;DHT22;10640;50.140;8.138;2022-08-04T01:10:45;19.30;99.90
20963;DHT22;10640;50.140;8.138;2022-08-04T01:13:33;19.30;99.90
20963;DHT22;10640;50.140;8.138;2022-08-04T01:16:05;19.20;99.90
20963;DHT22;10640;50.140;8.138;2022-08-04T01:18:43;19.20;99.90
20963;DHT22;10640;50.140;8.138;2022-08-04T01:21:30;19.30;99.90
20963;DHT22;10640;50.140;8.138;2022-08-04T01:24:25;19.20;99.90
20963;DHT22;10640;50.140;8.138;2022-08-04T01:27:00;19.20;99.90
20963;DHT22;10640;50.140;8.138;2022-08-04T01:29:33;19.20;99.90
20963;DHT22;10640;50.140;8.138;2022-08-04T01:32:02;19.20;99.90
20963;DHT22;10640;50.140;8.138;2022-08-04T01:34:34;19.10;99.90
20963;DHT22;10640;50.140;8.138;2022-08-04T01:37:18;19.00;99.90
20963;DHT22;10640;50.140;8.138;2022-08-04T01:39:50;19.00;99.90
20963;DHT22;10640;50.140;8.138;2022-08-04T01:42:25;19.00;99.90
20963;DHT22;10640;50.140;8.138;2022-08-04T01:44:54;19.00;99.90
20963;DHT22;10640;50.140;8.138;2022-08-04T01:47:26;19.10;99.90
20963;DHT22;10640;50.140;8.138;2022-08-04T01:49:59;19.00;99.90
20963;DHT22;10640;50.140;8.138;2022-08-04T01:52:28;18.90;99.90
20963;DHT22;10640;50.140;8.138;2022-08-04T01:54:56;18.90;99.90
20963;DHT22;10640;50.140;8.138;2022-08-04T01:57:25;18.90;99.90
20963;DHT22;10640;50.140;8.138;2022-08-04T01:59:57;18.80;99.90
20963;DHT22;10640;50.140;8.138;2022-08-04T02:02:24;18.70;99.90
20963;DHT22;10640;50.140;8.138;2022-08-04T02:04:51;18.70;99.90
20963;DHT22;10640;50.140;8.138;2022-08-04T02:07:27;18.70;99.90
20963;DHT22;10640;50.140;8.138;2022-08-04T02:10:04;18.70;99.90
20963;DHT22;10640;50.140;8.138;2022-08-04T02:12:43;18.80;99.90
20963;DHT22;10640;50.140;8.138;2022-08-04T02:15:22;18.80;99.90
20963;DHT22;10640;50.140;8.138;2022-08-04T02:18:04;18.80;99.90
20963;DHT22;10640;50.140;8.138;2022-08-04T02:20:37;18.70;99.90
20963;DHT22;10640;50.140;8.138;2022-08-04T02:23:06;18.60;99.90
20963;DHT22;10640;50.140;8.138;2022-08-04T02:25:39;18.30;99.90
20963;DHT22;10640;50.140;8.138;2022-08-04T02:28:19;18.40;99.90
20963;DHT22;10640;50.140;8.138;2022-08-04T02:31:01;18.70;99.90
20963;DHT22;10640;50.140;8.138;2022-08-04T02:33:35;18.70;99.90
20963;DHT22;10640;50.140;8.138;2022-08-04T02:36:04;18.60;99.90
20963;DHT22;10640;50.140;8.138;2022-08-04T02:38:42;18.60;99.90
20963;DHT22;10640;50.140;8.138;2022-08-04T02:41:15;18.50;99.90
20963;DHT22;10640;50.140;8.138;2022-08-04T02:43:43;18.30;99.90
20963;DHT22;10640;50.140;8.138;2022-08-04T02:46:16;18.30;99.90
20963;DHT22;10640;50.140;8.138;2022-08-04T02:48:45;18.30;99.90
20963;DHT22;10640;50.140;8.138;2022-08-04T02:51:15;18.40;99.90
20963;DHT22;10640;50.140;8.138;2022-08-04T02:53:43;18.40;99.90
20963;DHT22;10640;50.140;8.138;2022-08-04T02:56:14;18.50;99.90
20963;DHT22;10640;50.140;8.138;2022-08-04T02:58:47;18.50;99.90
20963;DHT22;10640;50.140;8.138;2022-08-04T03:01:17;18.50;99.90
20963;DHT22;10640;50.140;8.138;2022-08-04T03:03:50;18.50;99.90
20963;DHT22;10640;50.140;8.138;2022-08-04T03:12:46;18.30;99.90
20963;DHT22;10640;50.140;8.138;2022-08-04T03:15:41;18.10;99.90
20963;DHT22;10640;50.140;8.138;2022-08-04T03:18:43;18.10;99.90
20963;DHT22;10640;50.140;8.138;2022-08-04T03:21:44;18.20;99.90
20963;DHT22;10640;50.140;8.138;2022-08-04T03:24:44;18.10;99.90
20963;DHT22;10640;50.140;8.138;2022-08-04T03:27:34;18.30;99.90
20963;DHT22;10640;50.140;8.138;2022-08-04T03:30:11;18.40;99.90
20963;DHT22;10640;50.140;8.138;2022-08-04T03:33:00;18.30;99.90
20963;DHT22;10640;50.140;8.138;2022-08-04T03:39:02;18.20;99.90
20963;DHT22;10640;50.140;8.138;2022-08-04T03:42:01;18.20;99.90
20963;DHT22;10640;50.140;8.138;2022-08-04T03:44:57;18.00;99.90
20963;DHT22;10640;50.140;8.138;2022-08-04T03:47:41;18.20;99.90
20963;DHT22;10640;50.140;8.138;2022-08-04T03:50:57;18.20;99.90
20963;DHT22;10640;50.140;8.138;2022-08-04T03:54:21;18.20;99.90
20963;DHT22;10640;50.140;8.138;2022-08-04T04:00:06;18.10;99.90
20963;DHT22;10640;50.140;8.138;2022-08-04T04:03:00;18.10;99.90
20963;DHT22;10640;50.140;8.138;2022-08-04T04:05:59;18.20;99.90
20963;DHT22;10640;50.140;8.138;2022-08-04T04:08:59;18.10;99.90
20963;DHT22;10640;50.140;8.138;2022-08-04T04:11:58;18.20;99.90
20963;DHT22;10640;50.140;8.138;2022-08-04T04:15:03;18.20;99.90
20963;DHT22;10640;50.140;8.138;2022-08-04T04:21:04;18.30;99.90
20963;DHT22;10640;50.140;8.138;2022-08-04T04:26:42;18.50;99.90
20963;DHT22;10640;50.140;8.138;2022-08-04T04:29:46;18.40;99.90
20963;DHT22;10640;50.140;8.138;2022-08-04T04:32:23;18.40;99.90
20963;DHT22;10640;50.140;8.138;2022-08-04T04:35:17;18.50;99.90
20963;DHT22;10640;50.140;8.138;2022-08-04T04:38:13;18.60;99.90
20963;DHT22;10640;50.140;8.138;2022-08-04T04:40:51;18.50;99.90
20963;DHT22;10640;50.140;8.138;2022-08-04T04:46:37;18.30;99.90
20963;DHT22;10640;50.140;8.138;2022-08-04T04:49:19;18.50;99.90
20963;DHT22;10640;50.140;8.138;2022-08-04T04:51:59;18.60;99.90
20963;DHT22;10640;50.140;8.138;2022-08-04T04:54:33;18.70;99.90
20963;DHT22;10640;50.140;8.138;2022-08-04T04:57:10;18.70;99.90
20963;DHT22;10640;50.140;8.138;2022-08-04T04:59:44;18.80;99.90
20963;DHT22;10640;50.140;8.138;2022-08-04T05:02:31;19.00;99.90
20963;DHT22;10640;50.140;8.138;2022-08-04T05:05:26;19.10;99.90
20963;DHT22;10640;50.140;8.138;2022-08-04T05:14:22;19.10;99.90
20963;DHT22;10640;50.140;8.138;2022-08-04T05:17:00;19.10;99.90
20963;DHT22;10640;50.140;8.138;2022-08-04T05:19:38;19.40;99.90
20963;DHT22;10640;50.140;8.138;2022-08-04T05:22:11;19.50;99.90
20963;DHT22;10640;50.140;8.138;2022-08-04T05:24:42;19.70;99.90
20963;DHT22;10640;50.140;8.138;2022-08-04T05:27:18;20.00;99.90
20963;DHT22;10640;50.140;8.138;2022-08-04T05:29:51;20.00;99.90
20963;DHT22;10640;50.140;8.138;2022-08-04T05:32:25;20.10;99.90
20963;DHT22;10640;50.140;8.138;2022-08-04T05:34:59;20.20;99.90
20963;DHT22;10640;50.140;8.138;2022-08-04T05:37:29;20.50;99.90
20963;DHT22;10640;50.140;8.138;2022-08-04T05:40:03;20.70;99.90
20963;DHT22;10640;50.140;8.138;2022-08-04T05:42:32;20.90;99.90
20963;DHT22;10640;50.140;8.138;2022-08-04T05:45:02;21.00;99.90
20963;DHT22;10640;50.140;8.138;2022-08-04T05:47:30;21.30;99.90
20963;DHT22;10640;50.140;8.138;2022-08-04T05:50:01;21.30;99.90
20963;DHT22;10640;50.140;8.138;2022-08-04T05:52:37;21.80;99.90
20963;DHT22;10640;50.140;8.138;2022-08-04T05:55:18;22.00;99.90
20963;DHT22;10640;50.140;8.138;2022-08-04T05:57:56;22.00;99.90
20963;DHT22;10640;50.140;8.138;2022-08-04T06:00:38;22.20;99.90
20963;DHT22;10640;50.140;8.138;2022-08-04T06:03:11;22.10;99.90
20963;DHT22;10640;50.140;8.138;2022-08-04T06:05:45;22.30;99.90
20963;DHT22;10640;50.140;8.138;2022-08-04T06:08:20;22.60;99.90
20963;DHT22;10640;50.140;8.138;2022-08-04T06:10:56;22.80;99.90
20963;DHT22;10640;50.140;8.138;2022-08-04T06:13:38;23.10;99.90
20963;DHT22;10640;50.140;8.138;2022-08-04T06:16:14;23.70;1.00
20963;DHT22;10640;50.140;8.138;2022-08-04T06:18:53;23.80;99.90
20963;DHT22;10640;50.140;8.138;2022-08-04T06:21:31;23.90;1.00
20963;DHT22;10640;50.140;8.138;2022-08-04T06:24:00;24.00;1.00
20963;DHT22;10640;50.140;8.138;2022-08-04T06:26:29;24.50;99.90
20963;DHT22;10640;50.140;8.138;2022-08-04T06:28:59;24.90;1.00
20963;DHT22;10640;50.140;8.138;2022-08-04T06:31:27;24.90;1.00
20963;DHT22;10640;50.140;8.138;2022-08-04T06:34:13;25.20;1.00
20963;DHT22;10640;50.140;8.138;2022-08-04T06:36:41;25.50;16.50
20963;DHT22;10640;50.140;8.138;2022-08-04T06:39:10;25.90;1.00
20963;DHT22;10640;50.140;8.138;2022-08-04T06:41:37;26.00;1.00
20963;DHT22;10640;50.140;8.138;2022-08-04T06:44:08;26.00;1.00
20963;DHT22;10640;50.140;8.138;2022-08-04T06:46:37;26.10;99.90
20963;DHT22;10640;50.140;8.138;2022-08-04T06:49:06;26.80;99.90
20963;DHT22;10640;50.140;8.138;2022-08-04T06:51:35;27.10;1.00
20963;DHT22;10640;50.140;8.138;2022-08-04T06:54:04;27.70;1.00
20963;DHT22;10640;50.140;8.138;2022-08-04T06:56:33;27.80;1.00
20963;DHT22;10640;50.140;8.138;2022-08-04T06:59:02;28.00;1.00
20963;DHT22;10640;50.140;8.138;2022-08-04T07:01:29;28.50;1.00
20963;DHT22;10640;50.140;8.138;2022-08-04T07:03:58;28.20;1.00
20963;DHT22;10640;50.140;8.138;2022-08-04T07:06:25;27.90;1.00
20963;DHT22;10640;50.140;8.138;2022-08-04T07:08:52;27.80;1.00
20963;DHT22;10640;50.140;8.138;2022-08-04T07:11:22;28.00;99.90
20963;DHT22;10640;50.140;8.138;2022-08-04T07:13:50;28.10;1.00
20963;DHT22;10640;50.140;8.138;2022-08-04T07:16:19;28.40;1.00
20963;DHT22;10640;50.140;8.138;2022-08-04T07:18:47;28.40;1.00
20963;DHT22;10640;50.140;8.138;2022-08-04T07:21:20;28.80;1.00
20963;DHT22;10640;50.140;8.138;2022-08-04T07:23:48;29.70;99.90
20963;DHT22;10640;50.140;8.138;2022-08-04T07:26:14;30.70;99.90
20963;DHT22;10640;50.140;8.138;2022-08-04T07:28:45;30.90;99.90
20963;DHT22;10640;50.140;8.138;2022-08-04T07:31:14;30.80;99.90
20963;DHT22;10640;50.140;8.138;2022-08-04T07:33:41;30.50;99.90
20963;DHT22;10640;50.140;8.138;2022-08-04T07:36:09;31.20;99.90
20963;DHT22;10640;50.140;8.138;2022-08-04T07:38:37;31.40;1.00
20963;DHT22;10640;50.140;8.138;2022-08-04T07:41:04;31.50;1.00
20963;DHT22;10640;50.140;8.138;2022-08-04T07:43:32;31.10;1.00
20963;DHT22;10640;50.140;8.138;2022-08-04T07:46:00;30.70;1.00
20963;DHT22;10640;50.140;8.138;2022-08-04T07:48:28;31.20;1.00
20963;DHT22;10640;50.140;8.138;2022-08-04T07:50:55;31.50;1.00
20963;DHT22;10640;50.140;8.138;2022-08-04T07:53:22;31.10;1.00
20963;DHT22;10640;50.140;8.138;2022-08-04T07:55:50;31.30;1.00
20963;DHT22;10640;50.140;8.138;2022-08-04T07:58:18;31.50;1.00
20963;DHT22;10640;50.140;8.138;2022-08-04T08:00:45;31.80;1.00
20963;DHT22;10640;50.140;8.138;2022-08-04T08:03:14;32.20;1.00
20963;DHT22;10640;50.140;8.138;2022-08-04T08:05:42;32.10;1.00
20963;DHT22;10640;50.140;8.138;2022-08-04T08:08:09;32.80;1.00
20963;DHT22;10640;50.140;8.138;2022-08-04T08:10:37;32.40;1.00
20963;DHT22;10640;50.140;8.138;2022-08-04T08:13:06;32.50;1.00
20963;DHT22;10640;50.140;8.138;2022-08-04T08:15:34;32.10;1.00
20963;DHT22;10640;50.140;8.138;2022-08-04T08:18:03;32.50;1.00
20963;DHT22;10640;50.140;8.138;2022-08-04T08:20:32;33.40;1.00
20963;DHT22;10640;50.140;8.138;2022-08-04T08:23:00;34.30;1.00
20963;DHT22;10640;50.140;8.138;2022-08-04T08:25:29;34.70;1.00
20963;DHT22;10640;50.140;8.138;2022-08-04T08:27:56;34.80;1.00
20963;DHT22;10640;50.140;8.138;2022-08-04T08:30:23;34.30;1.00
20963;DHT22;10640;50.140;8.138;2022-08-04T08:32:50;34.70;1.00
20963;DHT22;10640;50.140;8.138;2022-08-04T08:35:18;34.40;1.00
20963;DHT22;10640;50.140;8.138;2022-08-04T08:37:51;34.20;1.00
20963;DHT22;10640;50.140;8.138;2022-08-04T08:40:28;33.60;1.00
20963;DHT22;10640;50.140;8.138;2022-08-04T08:43:35;33.20;1.00
20963;DHT22;10640;50.140;8.138;2022-08-04T08:46:24;33.70;1.00
20963;DHT22;10640;50.140;8.138;2022-08-04T08:49:17;34.30;1.00
20963;DHT22;10640;50.140;8.138;2022-08-04T08:52:02;34.10;1.00
20963;DHT22;10640;50.140;8.138;2022-08-04T08:54:46;34.80;1.00
20963;DHT22;10640;50.140;8.138;2022-08-04T08:57:32;34.60;1.00
20963;DHT22;10640;50.140;8.138;2022-08-04T09:00:08;34.30;1.00
20963;DHT22;10640;50.140;8.138;2022-08-04T09:03:11;33.70;1.00
20963;DHT22;10640;50.140;8.138;2022-08-04T09:09:03;34.00;1.00
20963;DHT22;10640;50.140;8.138;2022-08-04T09:11:42;34.50;1.00
20963;DHT22;10640;50.140;8.138;2022-08-04T09:14:17;34.70;1.00
20963;DHT22;10640;50.140;8.138;2022-08-04T09:16:51;33.40;1.00
20963;DHT22;10640;50.140;8.138;2022-08-04T09:19:23;33.40;1.00
20963;DHT22;10640;50.140;8.138;2022-08-04T09:22:03;33.70;1.00
20963;DHT22;10640;50.140;8.138;2022-08-04T09:24:40;34.90;1.00
20963;DHT22;10640;50.140;8.138;2022-08-04T09:27:18;35.00;1.00
20963;DHT22;10640;50.140;8.138;2022-08-04T09:29:52;34.10;1.00
20963;DHT22;10640;50.140;8.138;2022-08-04T09:35:18;34.50;1.00
20963;DHT22;10640;50.140;8.138;2022-08-04T09:37:57;34.50;1.00
20963;DHT22;10640;50.140;8.138;2022-08-04T09:40:30;34.50;1.00
20963;DHT22;10640;50.140;8.138;2022-08-04T09:43:08;35.40;1.00
20963;DHT22;10640;50.140;8.138;2022-08-04T09:45:42;35.80;1.00
20963;DHT22;10640;50.140;8.138;2022-08-04T09:48:16;35.40;1.00
20963;DHT22;10640;50.140;8.138;2022-08-04T09:50:53;35.20;1.00
20963;DHT22;10640;50.140;8.138;2022-08-04T09:53:35;35.30;1.00
20963;DHT22;10640;50.140;8.138;2022-08-04T09:56:08;35.60;1.00
20963;DHT22;10640;50.140;8.138;2022-08-04T09:58:48;35.70;1.00
20963;DHT22;10640;50.140;8.138;2022-08-04T10:01:18;36.10;1.00
20963;DHT22;10640;50.140;8.138;2022-08-04T10:03:49;35.90;1.00
20963;DHT22;10640;50.140;8.138;2022-08-04T10:06:44;35.80;1.00
20963;DHT22;10640;50.140;8.138;2022-08-04T10:09:33;35.90;1.00
20963;DHT22;10640;50.140;8.138;2022-08-04T10:15:08;36.10;1.00
20963;DHT22;10640;50.140;8.138;2022-08-04T10:17:55;36.70;1.00
20963;DHT22;10640;50.140;8.138;2022-08-04T10:20:41;35.20;1.00
20963;DHT22;10640;50.140;8.138;2022-08-04T10:23:11;35.90;1.00
20963;DHT22;10640;50.140;8.138;2022-08-04T10:25:47;35.30;1.00
20963;DHT22;10640;50.140;8.138;2022-08-04T10:28:19;35.30;1.00
20963;DHT22;10640;50.140;8.138;2022-08-04T10:30:50;35.20;1.00
20963;DHT22;10640;50.140;8.138;2022-08-04T10:33:25;35.00;1.00
20963;DHT22;10640;50.140;8.138;2022-08-04T10:35:58;35.50;1.00
20963;DHT22;10640;50.140;8.138;2022-08-04T10:38:30;36.40;1.00
20963;DHT22;10640;50.140;8.138;2022-08-04T10:41:00;35.50;1.00
20963;DHT22;10640;50.140;8.138;2022-08-04T10:43:42;36.30;1.00
20963;DHT22;10640;50.140;8.138;2022-08-04T10:46:16;37.80;1.00
20963;DHT22;10640;50.140;8.138;2022-08-04T10:48:50;36.60;1.00
20963;DHT22;10640;50.140;8.138;2022-08-04T10:51:24;37.20;1.00
20963;DHT22;10640;50.140;8.138;2022-08-04T10:53:56;36.70;1.00
20963;DHT22;10640;50.140;8.138;2022-08-04T10:56:31;38.50;1.00
20963;DHT22;10640;50.140;8.138;2022-08-04T10:59:03;38.00;1.00
20963;DHT22;10640;50.140;8.138;2022-08-04T11:01:36;37.30;1.00
20963;DHT22;10640;50.140;8.138;2022-08-04T11:04:11;36.20;1.00
20963;DHT22;10640;50.140;8.138;2022-08-04T11:06:41;37.30;1.00
20963;DHT22;10640;50.140;8.138;2022-08-04T11:09:09;37.20;1.00
20963;DHT22;10640;50.140;8.138;2022-08-04T11:11:40;37.70;1.00
20963;DHT22;10640;50.140;8.138;2022-08-04T11:14:11;38.50;1.00
20963;DHT22;10640;50.140;8.138;2022-08-04T11:16:44;39.10;1.00
20963;DHT22;10640;50.140;8.138;2022-08-04T11:19:21;39.20;1.00
20963;DHT22;10640;50.140;8.138;2022-08-04T11:21:56;39.40;1.00
20963;DHT22;10640;50.140;8.138;2022-08-04T11:24:29;39.80;1.00
20963;DHT22;10640;50.140;8.138;2022-08-04T11:27:04;39.50;1.00
20963;DHT22;10640;50.140;8.138;2022-08-04T11:29:39;39.60;1.00
20963;DHT22;10640;50.140;8.138;2022-08-04T11:32:24;39.50;1.00
20963;DHT22;10640;50.140;8.138;2022-08-04T11:35:01;38.80;1.00
20963;DHT22;10640;50.140;8.138;2022-08-04T11:37:40;37.60;1.00
20963;DHT22;10640;50.140;8.138;2022-08-04T11:40:12;38.50;1.00
20963;DHT22;10640;50.140;8.138;2022-08-04T11:42:48;39.40;1.00
20963;DHT22;10640;50.140;8.138;2022-08-04T11:45:23;40.00;1.00
20963;DHT22;10640;50.140;8.138;2022-08-04T11:47:57;39.70;1.00
20963;DHT22;10640;50.140;8.138;2022-08-04T11:50:30;40.80;1.00
20963;DHT22;10640;50.140;8.138;2022-08-04T11:52:58;40.20;1.00
20963;DHT22;10640;50.140;8.138;2022-08-04T11:55:27;40.00;1.00
20963;DHT22;10640;50.140;8.138;2022-08-04T11:57:55;39.20;1.00
20963;DHT22;10640;50.140;8.138;2022-08-04T12:00:25;38.80;1.00
20963;DHT22;10640;50.140;8.138;2022-08-04T12:03:14;39.90;1.00
20963;DHT22;10640;50.140;8.138;2022-08-04T12:05:53;40.50;1.00
20963;DHT22;10640;50.140;8.138;2022-08-04T12:08:32;40.30;1.00
20963;DHT22;10640;50.140;8.138;2022-08-04T12:11:11;40.20;1.00
20963;DHT22;10640;50.140;8.138;2022-08-04T12:13:48;39.80;1.00
20963;DHT22;10640;50.140;8.138;2022-08-04T12:16:19;40.50;1.00
20963;DHT22;10640;50.140;8.138;2022-08-04T12:18:55;39.50;1.00
20963;DHT22;10640;50.140;8.138;2022-08-04T12:21:27;37.90;1.00
20963;DHT22;10640;50.140;8.138;2022-08-04T12:23:57;38.60;1.00
20963;DHT22;10640;50.140;8.138;2022-08-04T12:26:29;39.00;1.00
20963;DHT22;10640;50.140;8.138;2022-08-04T12:29:00;39.70;1.00
20963;DHT22;10640;50.140;8.138;2022-08-04T12:31:30;38.60;1.00
20963;DHT22;10640;50.140;8.138;2022-08-04T12:34:06;38.60;1.00
20963;DHT22;10640;50.140;8.138;2022-08-04T12:36:39;40.10;1.00
20963;DHT22;10640;50.140;8.138;2022-08-04T12:39:11;41.10;1.00
20963;DHT22;10640;50.140;8.138;2022-08-04T12:41:50;40.10;1.00
20963;DHT22;10640;50.140;8.138;2022-08-04T12:44:19;40.40;1.00
20963;DHT22;10640;50.140;8.138;2022-08-04T12:46:47;41.10;1.00
20963;DHT22;10640;50.140;8.138;2022-08-04T12:49:16;40.60;1.00
20963;DHT22;10640;50.140;8.138;2022-08-04T12:51:45;40.80;1.00
20963;DHT22;10640;50.140;8.138;2022-08-04T12:54:13;40.30;1.00
20963;DHT22;10640;50.140;8.138;2022-08-04T12:56:47;41.20;1.00
20963;DHT22;10640;50.140;8.138;2022-08-04T12:59:15;40.80;1.00
20963;DHT22;10640;50.140;8.138;2022-08-04T13:01:46;40.70;1.00
20963;DHT22;10640;50.140;8.138;2022-08-04T13:04:17;40.30;1.00
20963;DHT22;10640;50.140;8.138;2022-08-04T13:06:52;38.40;1.00
20963;DHT22;10640;50.140;8.138;2022-08-04T13:09:23;38.60;1.00
20963;DHT22;10640;50.140;8.138;2022-08-04T13:11:54;38.40;1.00
20963;DHT22;10640;50.140;8.138;2022-08-04T13:14:22;38.40;1.00
20963;DHT22;10640;50.140;8.138;2022-08-04T13:16:56;38.50;1.00
20963;DHT22;10640;50.140;8.138;2022-08-04T13:19:26;39.60;1.00
20963;DHT22;10640;50.140;8.138;2022-08-04T13:21:54;40.00;1.00
20963;DHT22;10640;50.140;8.138;2022-08-04T13:24:23;39.80;1.00
20963;DHT22;10640;50.140;8.138;2022-08-04T13:26:54;39.50;1.00
20963;DHT22;10640;50.140;8.138;2022-08-04T13:29:24;38.70;1.00
20963;DHT22;10640;50.140;8.138;2022-08-04T13:31:55;39.20;1.00
20963;DHT22;10640;50.140;8.138;2022-08-04T13:34:24;38.70;1.00
20963;DHT22;10640;50.140;8.138;2022-08-04T13:36:54;38.50;1.00
20963;DHT22;10640;50.140;8.138;2022-08-04T13:39:22;38.80;1.00
20963;DHT22;10640;50.140;8.138;2022-08-04T13:41:52;38.50;1.00
20963;DHT22;10640;50.140;8.138;2022-08-04T13:44:22;38.80;1.00
20963;DHT22;10640;50.140;8.138;2022-08-04T13:46:51;38.80;1.00
20963;DHT22;10640;50.140;8.138;2022-08-04T13:49:19;38.90;1.00
20963;DHT22;10640;50.140;8.138;2022-08-04T13:51:50;38.80;1.00
20963;DHT22;10640;50.140;8.138;2022-08-04T13:54:17;38.60;1.00
20963;DHT22;10640;50.140;8.138;2022-08-04T13:56:47;38.30;1.00
20963;DHT22;10640;50.140;8.138;2022-08-04T13:59:16;39.10;1.00
20963;DHT22;10640;50.140;8.138;2022-08-04T14:01:45;38.30;1.00
20963;DHT22;10640;50.140;8.138;2022-08-04T14:04:17;37.10;1.00
20963;DHT22;10640;50.140;8.138;2022-08-04T14:06:50;36.80;1.00
20963;DHT22;10640;50.140;8.138;2022-08-04T14:09:20;36.50;1.00
20963;DHT22;10640;50.140;8.138;2022-08-04T14:11:49;37.60;1.00
20963;DHT22;10640;50.140;8.138;2022-08-04T14:14:17;37.50;1.00
20963;DHT22;10640;50.140;8.138;2022-08-04T14:16:57;37.90;1.00
20963;DHT22;10640;50.140;8.138;2022-08-04T14:19:24;36.90;1.00
20963;DHT22;10640;50.140;8.138;2022-08-04T14:21:52;37.30;1.00
20963;DHT22;10640;50.140;8.138;2022-08-04T14:24:23;36.60;1.00
20963;DHT22;10640;50.140;8.138;2022-08-04T14:26:50;37.00;1.00
20963;DHT22;10640;50.140;8.138;2022-08-04T14:29:18;36.40;1.00
20963;DHT22;10640;50.140;8.138;2022-08-04T14:31:49;36.80;1.00
20963;DHT22;10640;50.140;8.138;2022-08-04T14:34:26;37.10;1.00
20963;DHT22;10640;50.140;8.138;2022-08-04T14:36:55;36.70;1.00
20963;DHT22;10640;50.140;8.138;2022-08-04T14:39:39;36.60;1.00
20963;DHT22;10640;50.140;8.138;2022-08-04T14:42:06;36.50;1.00
20963;DHT22;10640;50.140;8.138;2022-08-04T14:44:51;36.80;1.00
20963;DHT22;10640;50.140;8.138;2022-08-04T14:47:37;37.20;1.00
20963;DHT22;10640;50.140;8.138;2022-08-04T14:50:05;37.20;1.00
20963;DHT22;10640;50.140;8.138;2022-08-04T14:52:34;37.20;1.00
20963;DHT22;10640;50.140;8.138;2022-08-04T14:55:14;36.50;1.00
20963;DHT22;10640;50.140;8.138;2022-08-04T14:57:45;36.00;1.00
20963;DHT22;10640;50.140;8.138;2022-08-04T15:00:23;36.10;1.00
20963;DHT22;10640;50.140;8.138;2022-08-04T15:02:51;36.00;1.00
20963;DHT22;10640;50.140;8.138;2022-08-04T15:05:19;36.30;1.00
20963;DHT22;10640;50.140;8.138;2022-08-04T15:07:48;36.20;1.00
20963;DHT22;10640;50.140;8.138;2022-08-04T15:10:15;36.20;1.00
20963;DHT22;10640;50.140;8.138;2022-08-04T15:12:42;35.70;1.00
20963;DHT22;10640;50.140;8.138;2022-08-04T15:15:09;34.90;1.00
20963;DHT22;10640;50.140;8.138;2022-08-04T15:17:37;34.70;1.00
20963;DHT22;10640;50.140;8.138;2022-08-04T15:20:05;34.80;1.00
20963;DHT22;10640;50.140;8.138;2022-08-04T15:22:32;34.50;1.00
20963;DHT22;10640;50.140;8.138;2022-08-04T15:25:01;34.60;1.00
20963;DHT22;10640;50.140;8.138;2022-08-04T15:27:30;35.10;1.00
20963;DHT22;10640;50.140;8.138;2022-08-04T15:30:00;35.20;1.00
20963;DHT22;10640;50.140;8.138;2022-08-04T15:32:28;35.40;1.00
20963;DHT22;10640;50.140;8.138;2022-08-04T15:35:01;35.30;1.00
20963;DHT22;10640;50.140;8.138;2022-08-04T15:37:36;35.20;1.00
20963;DHT22;10640;50.140;8.138;2022-08-04T15:40:11;35.30;1.00
20963;DHT22;10640;50.140;8.138;2022-08-04T15:42:45;35.60;1.00
20963;DHT22;10640;50.140;8.138;2022-08-04T15:45:22;35.70;1.00
20963;DHT22;10640;50.140;8.138;2022-08-04T15:51:09;35.20;1.00
20963;DHT22;10640;50.140;8.138;2022-08-04T15:56:48;35.10;1.00
20963;DHT22;10640;50.140;8.138;2022-08-04T15:59:16;35.50;1.00
20963;DHT22;10640;50.140;8.138;2022-08-04T16:02:28;35.60;1.00
20963;DHT22;10640;50.140;8.138;2022-08-04T16:05:28;36.20;1.00
20963;DHT22;10640;50.140;8.138;2022-08-04T16:07:56;36.30;1.00
20963;DHT22;10640;50.140;8.138;2022-08-04T16:10:41;35.60;1.00
20963;DHT22;10640;50.140;8.138;2022-08-04T16:13:10;35.80;1.00
20963;DHT22;10640;50.140;8.138;2022-08-04T16:15:45;36.30;1.00
20963;DHT22;10640;50.140;8.138;2022-08-04T16:18:19;36.60;1.00
20963;DHT22;10640;50.140;8.138;2022-08-04T16:20:46;36.50;1.00
20963;DHT22;10640;50.140;8.138;2022-08-04T16:23:33;36.10;1.00
20963;DHT22;10640;50.140;8.138;2022-08-04T16:26:04;36.00;1.00
20963;DHT22;10640;50.140;8.138;2022-08-04T16:28:40;35.50;1.00
20963;DHT22;10640;50.140;8.138;2022-08-04T16:31:08;35.40;1.00
20963;DHT22;10640;50.140;8.138;2022-08-04T16:33:37;35.40;1.00
20963;DHT22;10640;50.140;8.138;2022-08-04T16:36:06;35.50;1.00
20963;DHT22;10640;50.140;8.138;2022-08-04T16:39:00;35.30;1.00
20963;DHT22;10640;50.140;8.138;2022-08-04T16:41:38;35.10;1.00
20963;DHT22;10640;50.140;8.138;2022-08-04T16:44:31;35.10;1.00
20963;DHT22;10640;50.140;8.138;2022-08-04T16:46:58;35.40;1.00
20963;DHT22;10640;50.140;8.138;2022-08-04T16:49:27;35.00;1.00
20963;DHT22;10640;50.140;8.138;2022-08-04T16:51:54;34.90;1.00
20963;DHT22;10640;50.140;8.138;2022-08-04T16:54:28;34.90;1.00
20963;DHT22;10640;50.140;8.138;2022-08-04T16:56:55;34.10;1.00
20963;DHT22;10640;50.140;8.138;2022-08-04T16:59:22;34.00;1.00
20963;DHT22;10640;50.140;8.138;2022-08-04T17:01:52;34.00;1.00
20963;DHT22;10640;50.140;8.138;2022-08-04T17:04:27;33.70;1.00
20963;DHT22;10640;50.140;8.138;2022-08-04T17:06:59;33.40;1.00
20963;DHT22;10640;50.140;8.138;2022-08-04T17:09:27;33.10;1.00
20963;DHT22;10640;50.140;8.138;2022-08-04T17:11:56;33.30;1.00